sensor_id;sensor_type;location;lat;lon;timestamp;temperature;humidity
12845;DHT22;6489;48.508;9.206;2022-08-03T00:01:56;20.80;1.00
12845;DHT22;6489;48.508;9.206;2022-08-03T00:08:40;19.90;1.00
12845;DHT22;6489;48.508;9.206;2022-08-03T00:15:26;20.70;1.00
12845;DHT22;6489;48.508;9.206;2022-08-03T00:18:48;20.50;1.00
12845;DHT22;6489;48.508;9.206;2022-08-03T00:22:10;19.50;1.00
12845;DHT22;6489;48.508;9.206;2022-08-03T00:25:33;20.00;1.00
12845;DHT22;6489;48.508;9.206;2022-08-03T00:28:56;20.10;1.00
12845;DHT22;6489;48.508;9.206;2022-08-03T00:32:18;20.00;1.00
12845;DHT22;6489;48.508;9.206;2022-08-03T00:35:40;19.90;1.00
12845;DHT22;6489;48.508;9.206;2022-08-03T00:39:01;19.90;1.00
12845;DHT22;6489;48.508;9.206;2022-08-03T00:45:47;20.60;1.00
12845;DHT22;6489;48.508;9.206;2022-08-03T00:49:09;20.50;1.00
12845;DHT22;6489;48.508;9.206;2022-08-03T00:52:31;20.30;1.00
12845;DHT22;6489;48.508;9.206;2022-08-03T00:55:53;19.50;1.00
12845;DHT22;6489;48.508;9.206;2022-08-03T00:59:15;19.90;1.00
12845;DHT22;6489;48.508;9.206;2022-08-03T01:02:39;19.80;1.00
12845;DHT22;6489;48.508;9.206;2022-08-03T01:06:06;19.70;1.00
12845;DHT22;6489;48.508;9.206;2022-08-03T01:09:40;19.70;1.00
12845;DHT22;6489;48.508;9.206;2022-08-03T01:13:18;20.00;1.00
12845;DHT22;6489;48.508;9.206;2022-08-03T01:17:43;19.50;1.00
12845;DHT22;6489;48.508;9.206;2022-08-03T01:21:11;19.80;1.00
12845;DHT22;6489;48.508;9.206;2022-08-03T01:24:41;20.20;1.00
12845;DHT22;6489;48.508;9.206;2022-08-03T01:28:18;19.50;1.00
12845;DHT22;6489;48.508;9.206;2022-08-03T01:31:52;19.80;1.00
12845;DHT22;6489;48.508;9.206;2022-08-03T01:38:45;19.20;1.00
12845;DHT22;6489;48.508;9.206;2022-08-03T01:42:10;19.70;1.00
12845;DHT22;6489;48.508;9.206;2022-08-03T01:45:35;19.30;1.00
12845;DHT22;6489;48.508;9.206;2022-08-03T01:49:00;19.30;1.00
12845;DHT22;6489;48.508;9.206;2022-08-03T01:52:24;19.20;1.00
12845;DHT22;6489;48.508;9.206;2022-08-03T01:55:52;19.30;1.00
12845;DHT22;6489;48.508;9.206;2022-08-03T01:59:15;18.90;1.00
12845;DHT22;6489;48.508;9.206;2022-08-03T02:02:41;19.00;1.00
12845;DHT22;6489;48.508;9.206;2022-08-03T02:06:06;18.60;1.00
12845;DHT22;6489;48.508;9.206;2022-08-03T02:12:54;19.20;1.00
12845;DHT22;6489;48.508;9.206;2022-08-03T02:16:18;18.90;1.00
12845;DHT22;6489;48.508;9.206;2022-08-03T02:23:07;19.50;1.00
12845;DHT22;6489;48.508;9.206;2022-08-03T02:26:30;19.50;1.00
12845;DHT22;6489;48.508;9.206;2022-08-03T02:29:54;18.90;1.00
12845;DHT22;6489;48.508;9.206;2022-08-03T02:33:20;18.30;1.00
12845;DHT22;6489;48.508;9.206;2022-08-03T02:36:45;18.80;1.00
12845;DHT22;6489;48.508;9.206;2022-08-03T02:43:35;18.80;1.00
12845;DHT22;6489;48.508;9.206;2022-08-03T02:53:45;18.80;1.00
12845;DHT22;6489;48.508;9.206;2022-08-03T02:57:10;18.40;1.00
12845;DHT22;6489;48.508;9.206;2022-08-03T03:00:34;18.70;1.00
12845;DHT22;6489;48.508;9.206;2022-08-03T03:03:56;19.10;1.00
12845;DHT22;6489;48.508;9.206;2022-08-03T03:10:42;18.50;1.00
12845;DHT22;6489;48.508;9.206;2022-08-03T03:14:06;18.50;1.00
12845;DHT22;6489;48.508;9.206;2022-08-03T03:17:30;18.30;1.00
12845;DHT22;6489;48.508;9.206;2022-08-03T03:20:54;18.50;1.00
12845;DHT22;6489;48.508;9.206;2022-08-03T03:27:39;18.90;1.00
12845;DHT22;6489;48.508;9.206;2022-08-03T03:31:03;18.60;1.00
12845;DHT22;6489;48.508;9.206;2022-08-03T03:37:47;18.40;1.00
12845;DHT22;6489;48.508;9.206;2022-08-03T03:41:09;18.10;1.00
12845;DHT22;6489;48.508;9.206;2022-08-03T03:44:31;18.40;1.00
12845;DHT22;6489;48.508;9.206;2022-08-03T03:47:54;18.10;3.30
12845;DHT22;6489;48.508;9.206;2022-08-03T03:51:16;17.90;4.30
12845;DHT22;6489;48.508;9.206;2022-08-03T03:54:39;18.00;1.00
12845;DHT22;6489;48.508;9.206;2022-08-03T04:01:24;17.80;1.00
12845;DHT22;6489;48.508;9.206;2022-08-03T04:04:47;18.00;1.00
12845;DHT22;6489;48.508;9.206;2022-08-03T04:08:26;18.60;12.50
12845;DHT22;6489;48.508;9.206;2022-08-03T04:12:06;17.90;1.00
12845;DHT22;6489;48.508;9.206;2022-08-03T04:15:30;18.10;18.00
12845;DHT22;6489;48.508;9.206;2022-08-03T04:18:56;17.50;13.60
12845;DHT22;6489;48.508;9.206;2022-08-03T04:22:24;18.00;19.20
12845;DHT22;6489;48.508;9.206;2022-08-03T04:25:48;18.00;9.60
12845;DHT22;6489;48.508;9.206;2022-08-03T04:29:12;18.10;5.50
12845;DHT22;6489;48.508;9.206;2022-08-03T04:36:00;18.00;1.00
12845;DHT22;6489;48.508;9.206;2022-08-03T04:39:25;17.70;12.80
12845;DHT22;6489;48.508;9.206;2022-08-03T04:42:48;17.80;1.00
12845;DHT22;6489;48.508;9.206;2022-08-03T04:49:34;18.10;20.00
12845;DHT22;6489;48.508;9.206;2022-08-03T04:52:56;17.90;20.40
12845;DHT22;6489;48.508;9.206;2022-08-03T04:56:19;18.00;1.00
12845;DHT22;6489;48.508;9.206;2022-08-03T04:59:41;18.40;1.00
12845;DHT22;6489;48.508;9.206;2022-08-03T05:03:03;18.60;1.00
12845;DHT22;6489;48.508;9.206;2022-08-03T05:06:25;18.60;1.00
12845;DHT22;6489;48.508;9.206;2022-08-03T05:09:47;18.90;1.00
12845;DHT22;6489;48.508;9.206;2022-08-03T05:16:33;18.50;1.00
12845;DHT22;6489;48.508;9.206;2022-08-03T05:19:55;19.20;1.00
12845;DHT22;6489;48.508;9.206;2022-08-03T05:23:16;19.30;1.00
12845;DHT22;6489;48.508;9.206;2022-08-03T05:26:38;19.60;1.00
12845;DHT22;6489;48.508;9.206;2022-08-03T05:30:03;19.40;1.00
12845;DHT22;6489;48.508;9.206;2022-08-03T05:33:25;20.20;1.00
12845;DHT22;6489;48.508;9.206;2022-08-03T05:40:10;22.10;1.00
12845;DHT22;6489;48.508;9.206;2022-08-03T05:43:32;22.70;1.00
12845;DHT22;6489;48.508;9.206;2022-08-03T05:46:55;23.20;1.00
12845;DHT22;6489;48.508;9.206;2022-08-03T05:50:18;23.80;1.00
12845;DHT22;6489;48.508;9.206;2022-08-03T05:53:41;24.60;1.00
12845;DHT22;6489;48.508;9.206;2022-08-03T05:57:02;24.60;1.00
12845;DHT22;6489;48.508;9.206;2022-08-03T06:00:24;24.90;1.00
12845;DHT22;6489;48.508;9.206;2022-08-03T06:03:48;25.30;1.00
12845;DHT22;6489;48.508;9.206;2022-08-03T06:17:17;26.30;1.00
12845;DHT22;6489;48.508;9.206;2022-08-03T06:20:41;26.80;1.00
12845;DHT22;6489;48.508;9.206;2022-08-03T06:24:03;26.70;1.00
12845;DHT22;6489;48.508;9.206;2022-08-03T06:27:25;26.50;1.00
12845;DHT22;6489;48.508;9.206;2022-08-03T06:30:47;27.30;1.00
12845;DHT22;6489;48.508;9.206;2022-08-03T06:34:08;28.00;1.00
12845;DHT22;6489;48.508;9.206;2022-08-03T06:37:41;27.90;1.00
12845;DHT22;6489;48.508;9.206;2022-08-03T06:41:02;27.40;1.00
12845;DHT22;6489;48.508;9.206;2022-08-03T06:44:24;28.30;1.00
12845;DHT22;6489;48.508;9.206;2022-08-03T06:51:08;28.00;1.00
12845;DHT22;6489;48.508;9.206;2022-08-03T06:54:33;28.10;1.00
12845;DHT22;6489;48.508;9.206;2022-08-03T07:01:17;28.40;1.00
12845;DHT22;6489;48.508;9.206;2022-08-03T07:04:39;28.00;1.00
12845;DHT22;6489;48.508;9.206;2022-08-03T07:08:00;28.50;1.00
12845;DHT22;6489;48.508;9.206;2022-08-03T07:11:24;28.20;1.00
12845;DHT22;6489;48.508;9.206;2022-08-03T07:14:45;28.10;1.00
12845;DHT22;6489;48.508;9.206;2022-08-03T07:18:07;27.30;1.00
12845;DHT22;6489;48.508;9.206;2022-08-03T07:21:29;28.40;1.00
12845;DHT22;6489;48.508;9.206;2022-08-03T07:28:14;29.30;1.00
12845;DHT22;6489;48.508;9.206;2022-08-03T07:34:59;29.60;1.00
12845;DHT22;6489;48.508;9.206;2022-08-03T07:38:21;29.60;1.00
12845;DHT22;6489;48.508;9.206;2022-08-03T07:41:43;29.10;1.00
12845;DHT22;6489;48.508;9.206;2022-08-03T07:45:08;29.00;1.00
12845;DHT22;6489;48.508;9.206;2022-08-03T07:58:50;29.40;1.00
12845;DHT22;6489;48.508;9.206;2022-08-03T08:02:13;30.60;1.00
12845;DHT22;6489;48.508;9.206;2022-08-03T08:05:36;29.10;99.90
12845;DHT22;6489;48.508;9.206;2022-08-03T08:12:21;29.00;1.00
12845;DHT22;6489;48.508;9.206;2022-08-03T08:19:07;28.60;1.00
12845;DHT22;6489;48.508;9.206;2022-08-03T08:22:29;29.70;1.00
12845;DHT22;6489;48.508;9.206;2022-08-03T08:29:13;29.10;1.00
12845;DHT22;6489;48.508;9.206;2022-08-03T08:32:35;29.00;1.00
12845;DHT22;6489;48.508;9.206;2022-08-03T08:35:58;29.20;99.90
12845;DHT22;6489;48.508;9.206;2022-08-03T08:46:07;29.70;1.00
12845;DHT22;6489;48.508;9.206;2022-08-03T08:49:34;30.30;99.90
12845;DHT22;6489;48.508;9.206;2022-08-03T08:53:00;30.00;1.00
12845;DHT22;6489;48.508;9.206;2022-08-03T08:56:25;29.40;1.00
12845;DHT22;6489;48.508;9.206;2022-08-03T09:03:09;30.30;1.00
12845;DHT22;6489;48.508;9.206;2022-08-03T09:06:34;30.30;99.90
12845;DHT22;6489;48.508;9.206;2022-08-03T09:09:57;30.80;1.00
12845;DHT22;6489;48.508;9.206;2022-08-03T09:13:19;30.10;1.00
12845;DHT22;6489;48.508;9.206;2022-08-03T09:16:54;30.70;99.90
12845;DHT22;6489;48.508;9.206;2022-08-03T09:20:18;31.20;1.00
12845;DHT22;6489;48.508;9.206;2022-08-03T09:23:45;31.50;1.00
12845;DHT22;6489;48.508;9.206;2022-08-03T09:30:34;30.00;1.00
12845;DHT22;6489;48.508;9.206;2022-08-03T09:37:20;31.90;1.00
12845;DHT22;6489;48.508;9.206;2022-08-03T09:40:45;31.50;1.00
12845;DHT22;6489;48.508;9.206;2022-08-03T09:44:08;31.50;1.00
12845;DHT22;6489;48.508;9.206;2022-08-03T09:47:32;31.70;99.90
12845;DHT22;6489;48.508;9.206;2022-08-03T09:54:26;31.60;99.90
12845;DHT22;6489;48.508;9.206;2022-08-03T09:57:47;32.10;1.00
12845;DHT22;6489;48.508;9.206;2022-08-03T10:03:38;30.70;1.00
12845;DHT22;6489;48.508;9.206;2022-08-03T10:10:24;30.80;1.00
12845;DHT22;6489;48.508;9.206;2022-08-03T10:13:45;31.70;1.00
12845;DHT22;6489;48.508;9.206;2022-08-03T10:17:08;31.80;1.00
12845;DHT22;6489;48.508;9.206;2022-08-03T10:23:55;32.60;1.00
12845;DHT22;6489;48.508;9.206;2022-08-03T10:27:18;32.30;99.90
12845;DHT22;6489;48.508;9.206;2022-08-03T10:30:43;32.50;99.90
12845;DHT22;6489;48.508;9.206;2022-08-03T10:37:40;32.20;99.90
12845;DHT22;6489;48.508;9.206;2022-08-03T10:41:04;32.30;99.90
12845;DHT22;6489;48.508;9.206;2022-08-03T10:44:31;31.90;99.90
12845;DHT22;6489;48.508;9.206;2022-08-03T10:47:56;32.50;1.00
12845;DHT22;6489;48.508;9.206;2022-08-03T10:51:19;32.80;99.90
12845;DHT22;6489;48.508;9.206;2022-08-03T11:02:04;33.50;1.00
12845;DHT22;6489;48.508;9.206;2022-08-03T11:05:29;33.90;1.00
12845;DHT22;6489;48.508;9.206;2022-08-03T11:09:14;32.60;99.90
12845;DHT22;6489;48.508;9.206;2022-08-03T11:12:38;33.80;1.00
12845;DHT22;6489;48.508;9.206;2022-08-03T11:16:17;32.40;99.90
12845;DHT22;6489;48.508;9.206;2022-08-03T11:19:43;32.30;1.00
12845;DHT22;6489;48.508;9.206;2022-08-03T11:23:06;32.90;1.00
12845;DHT22;6489;48.508;9.206;2022-08-03T11:26:28;32.40;1.00
12845;DHT22;6489;48.508;9.206;2022-08-03T11:33:28;33.70;99.90
12845;DHT22;6489;48.508;9.206;2022-08-03T11:37:19;34.10;99.90
12845;DHT22;6489;48.508;9.206;2022-08-03T11:40:45;32.40;1.00
12845;DHT22;6489;48.508;9.206;2022-08-03T11:44:07;33.80;1.00
12845;DHT22;6489;48.508;9.206;2022-08-03T11:47:30;35.00;1.00
12845;DHT22;6489;48.508;9.206;2022-08-03T11:50:56;34.20;1.00
12845;DHT22;6489;48.508;9.206;2022-08-03T11:54:18;34.40;1.00
12845;DHT22;6489;48.508;9.206;2022-08-03T11:57:42;33.30;1.00
12845;DHT22;6489;48.508;9.206;2022-08-03T12:01:06;35.10;1.00
12845;DHT22;6489;48.508;9.206;2022-08-03T12:07:53;35.10;1.00
12845;DHT22;6489;48.508;9.206;2022-08-03T12:11:16;33.90;1.00
12845;DHT22;6489;48.508;9.206;2022-08-03T12:14:38;33.60;1.00
12845;DHT22;6489;48.508;9.206;2022-08-03T12:21:24;34.40;1.00
12845;DHT22;6489;48.508;9.206;2022-08-03T12:24:45;34.20;1.00
12845;DHT22;6489;48.508;9.206;2022-08-03T12:28:13;33.50;99.90
12845;DHT22;6489;48.508;9.206;2022-08-03T12:34:58;32.50;1.00
12845;DHT22;6489;48.508;9.206;2022-08-03T12:38:25;34.50;1.00
12845;DHT22;6489;48.508;9.206;2022-08-03T12:41:51;33.70;1.00
12845;DHT22;6489;48.508;9.206;2022-08-03T12:45:21;32.30;99.90
12845;DHT22;6489;48.508;9.206;2022-08-03T12:49:04;32.80;99.90
12845;DHT22;6489;48.508;9.206;2022-08-03T12:52:41;34.00;99.90
12845;DHT22;6489;48.508;9.206;2022-08-03T12:56:05;35.30;1.00
12845;DHT22;6489;48.508;9.206;2022-08-03T12:59:29;34.30;1.00
12845;DHT22;6489;48.508;9.206;2022-08-03T13:02:58;35.40;99.90
12845;DHT22;6489;48.508;9.206;2022-08-03T13:06:22;33.90;1.00
12845;DHT22;6489;48.508;9.206;2022-08-03T13:09:47;35.20;1.00
12845;DHT22;6489;48.508;9.206;2022-08-03T13:13:10;35.10;1.00
12845;DHT22;6489;48.508;9.206;2022-08-03T13:19:55;33.20;1.00
12845;DHT22;6489;48.508;9.206;2022-08-03T13:30:05;34.80;1.00
12845;DHT22;6489;48.508;9.206;2022-08-03T13:33:28;35.50;1.00
12845;DHT22;6489;48.508;9.206;2022-08-03T13:36:49;34.60;1.00
12845;DHT22;6489;48.508;9.206;2022-08-03T13:40:11;32.50;1.00
12845;DHT22;6489;48.508;9.206;2022-08-03T13:43:33;33.90;1.00
12845;DHT22;6489;48.508;9.206;2022-08-03T13:50:20;34.80;1.00
12845;DHT22;6489;48.508;9.206;2022-08-03T13:57:04;33.60;1.00
12845;DHT22;6489;48.508;9.206;2022-08-03T14:03:49;32.20;1.00
12845;DHT22;6489;48.508;9.206;2022-08-03T14:07:13;33.70;1.00
12845;DHT22;6489;48.508;9.206;2022-08-03T14:13:58;33.40;99.90
12845;DHT22;6489;48.508;9.206;2022-08-03T14:17:20;33.50;1.00
12845;DHT22;6489;48.508;9.206;2022-08-03T14:20:44;33.60;1.00
12845;DHT22;6489;48.508;9.206;2022-08-03T14:24:06;34.10;1.00
12845;DHT22;6489;48.508;9.206;2022-08-03T14:30:48;34.10;1.00
12845;DHT22;6489;48.508;9.206;2022-08-03T15:01:03;32.60;1.00
12845;DHT22;6489;48.508;9.206;2022-08-03T15:04:26;34.40;1.00
12845;DHT22;6489;48.508;9.206;2022-08-03T15:07:48;32.30;99.90
12845;DHT22;6489;48.508;9.206;2022-08-03T15:24:35;33.30;1.00
12845;DHT22;6489;48.508;9.206;2022-08-03T15:27:57;33.40;1.00
12845;DHT22;6489;48.508;9.206;2022-08-03T15:31:22;33.10;1.00
12845;DHT22;6489;48.508;9.206;2022-08-03T15:38:07;34.00;1.00
12845;DHT22;6489;48.508;9.206;2022-08-03T15:41:31;33.10;99.90
12845;DHT22;6489;48.508;9.206;2022-08-03T15:44:53;32.10;1.00
12845;DHT22;6489;48.508;9.206;2022-08-03T15:51:39;33.00;1.00
12845;DHT22;6489;48.508;9.206;2022-08-03T15:55:01;33.60;1.00
12845;DHT22;6489;48.508;9.206;2022-08-03T15:58:24;32.80;1.00
12845;DHT22;6489;48.508;9.206;2022-08-03T16:05:12;32.90;1.00
12845;DHT22;6489;48.508;9.206;2022-08-03T16:08:34;33.10;99.90
12845;DHT22;6489;48.508;9.206;2022-08-03T16:18:41;33.50;1.00
12845;DHT22;6489;48.508;9.206;2022-08-03T16:35:33;33.20;99.90
12845;DHT22;6489;48.508;9.206;2022-08-03T16:38:55;32.90;1.00
12845;DHT22;6489;48.508;9.206;2022-08-03T16:42:17;33.50;1.00
12845;DHT22;6489;48.508;9.206;2022-08-03T16:45:39;33.10;1.00
12845;DHT22;6489;48.508;9.206;2022-08-03T16:59:09;33.10;1.00
12845;DHT22;6489;48.508;9.206;2022-08-03T17:02:31;33.80;1.00
12845;DHT22;6489;48.508;9.206;2022-08-03T17:05:54;33.20;1.00
12845;DHT22;6489;48.508;9.206;2022-08-03T17:09:16;33.20;1.00
12845;DHT22;6489;48.508;9.206;2022-08-03T17:12:39;32.40;1.00
12845;DHT22;6489;48.508;9.206;2022-08-03T17:16:02;32.90;99.90
12845;DHT22;6489;48.508;9.206;2022-08-03T17:19:25;32.80;99.90
12845;DHT22;6489;48.508;9.206;2022-08-03T17:22:55;32.70;99.90
12845;DHT22;6489;48.508;9.206;2022-08-03T17:29:45;32.70;99.90
12845;DHT22;6489;48.508;9.206;2022-08-03T17:36:30;32.40;1.00
12845;DHT22;6489;48.508;9.206;2022-08-03T17:39:54;32.40;99.90
12845;DHT22;6489;48.508;9.206;2022-08-03T17:43:16;32.30;1.00
12845;DHT22;6489;48.508;9.206;2022-08-03T17:46:38;31.70;1.00
12845;DHT22;6489;48.508;9.206;2022-08-03T17:53:27;32.70;1.00
12845;DHT22;6489;48.508;9.206;2022-08-03T17:57:08;31.90;99.90
12845;DHT22;6489;48.508;9.206;2022-08-03T18:04:19;32.30;1.00
12845;DHT22;6489;48.508;9.206;2022-08-03T18:14:40;31.30;99.90
12845;DHT22;6489;48.508;9.206;2022-08-03T18:21:26;32.00;1.00
12845;DHT22;6489;48.508;9.206;2022-08-03T18:24:48;31.00;1.00
12845;DHT22;6489;48.508;9.206;2022-08-03T18:28:10;30.70;1.00
12845;DHT22;6489;48.508;9.206;2022-08-03T18:34:59;31.60;1.00
12845;DHT22;6489;48.508;9.206;2022-08-03T18:38:24;30.60;1.00
12845;DHT22;6489;48.508;9.206;2022-08-03T18:41:46;30.90;1.00
12845;DHT22;6489;48.508;9.206;2022-08-03T18:45:08;30.30;1.00
12845;DHT22;6489;48.508;9.206;2022-08-03T18:48:37;30.30;99.90
12845;DHT22;6489;48.508;9.206;2022-08-03T18:52:03;30.20;99.90
12845;DHT22;6489;48.508;9.206;2022-08-03T18:58:52;30.00;99.90
12845;DHT22;6489;48.508;9.206;2022-08-03T19:02:24;29.90;99.90
12845;DHT22;6489;48.508;9.206;2022-08-03T19:06:03;29.80;99.90
12845;DHT22;6489;48.508;9.206;2022-08-03T19:09:29;29.60;1.00
12845;DHT22;6489;48.508;9.206;2022-08-03T19:16:22;29.40;99.90
12845;DHT22;6489;48.508;9.206;2022-08-03T19:19:49;29.30;1.00
12845;DHT22;6489;48.508;9.206;2022-08-03T19:23:13;29.70;1.00
12845;DHT22;6489;48.508;9.206;2022-08-03T19:30:02;28.10;1.00
12845;DHT22;6489;48.508;9.206;2022-08-03T19:33:25;29.60;1.00
12845;DHT22;6489;48.508;9.206;2022-08-03T19:40:12;28.60;99.90
12845;DHT22;6489;48.508;9.206;2022-08-03T19:43:35;28.50;99.90
12845;DHT22;6489;48.508;9.206;2022-08-03T19:47:00;28.40;99.90
12845;DHT22;6489;48.508;9.206;2022-08-03T19:53:49;27.30;1.00
12845;DHT22;6489;48.508;9.206;2022-08-03T19:57:15;27.30;1.00
12845;DHT22;6489;48.508;9.206;2022-08-03T20:04:02;28.40;1.00
12845;DHT22;6489;48.508;9.206;2022-08-03T20:07:25;26.90;1.00
12845;DHT22;6489;48.508;9.206;2022-08-03T20:10:47;27.10;1.00
12845;DHT22;6489;48.508;9.206;2022-08-03T20:14:11;27.40;99.90
12845;DHT22;6489;48.508;9.206;2022-08-03T20:20:58;28.10;1.00
12845;DHT22;6489;48.508;9.206;2022-08-03T20:24:25;27.20;99.90
12845;DHT22;6489;48.508;9.206;2022-08-03T20:27:50;26.70;1.00
12845;DHT22;6489;48.508;9.206;2022-08-03T20:31:15;27.00;99.90
12845;DHT22;6489;48.508;9.206;2022-08-03T20:34:36;26.20;1.00
12845;DHT22;6489;48.508;9.206;2022-08-03T20:41:21;26.20;1.00
12845;DHT22;6489;48.508;9.206;2022-08-03T20:44:42;26.90;1.00
12845;DHT22;6489;48.508;9.206;2022-08-03T20:51:29;26.00;1.00
12845;DHT22;6489;48.508;9.206;2022-08-03T21:01:36;26.30;99.90
12845;DHT22;6489;48.508;9.206;2022-08-03T21:05:00;25.90;99.90
12845;DHT22;6489;48.508;9.206;2022-08-03T21:11:48;25.60;1.00
12845;DHT22;6489;48.508;9.206;2022-08-03T21:15:12;25.70;1.00
12845;DHT22;6489;48.508;9.206;2022-08-03T21:18:42;25.40;1.00
12845;DHT22;6489;48.508;9.206;2022-08-03T21:25:31;26.10;1.00
12845;DHT22;6489;48.508;9.206;2022-08-03T21:28:54;25.60;1.00
12845;DHT22;6489;48.508;9.206;2022-08-03T21:32:16;26.00;1.00
12845;DHT22;6489;48.508;9.206;2022-08-03T21:35:38;25.80;1.00
12845;DHT22;6489;48.508;9.206;2022-08-03T21:39:04;25.80;99.90
12845;DHT22;6489;48.508;9.206;2022-08-03T21:49:13;25.70;1.00
12845;DHT22;6489;48.508;9.206;2022-08-03T21:59:28;26.10;1.00
12845;DHT22;6489;48.508;9.206;2022-08-03T22:02:54;26.00;99.90
12845;DHT22;6489;48.508;9.206;2022-08-03T22:06:16;25.00;1.00
12845;DHT22;6489;48.508;9.206;2022-08-03T22:09:38;25.30;99.90
12845;DHT22;6489;48.508;9.206;2022-08-03T22:16:24;25.10;1.00
12845;DHT22;6489;48.508;9.206;2022-08-03T22:19:47;25.30;1.00
12845;DHT22;6489;48.508;9.206;2022-08-03T22:23:09;25.00;1.00
12845;DHT22;6489;48.508;9.206;2022-08-03T22:26:31;25.00;1.00
12845;DHT22;6489;48.508;9.206;2022-08-03T22:29:55;25.00;1.00
12845;DHT22;6489;48.508;9.206;2022-08-03T22:33:17;25.70;1.00
12845;DHT22;6489;48.508;9.206;2022-08-03T22:40:05;24.60;99.90
12845;DHT22;6489;48.508;9.206;2022-08-03T22:46:52;25.00;1.00
12845;DHT22;6489;48.508;9.206;2022-08-03T22:50:14;24.60;99.90
12845;DHT22;6489;48.508;9.206;2022-08-03T22:53:38;24.60;99.90
12845;DHT22;6489;48.508;9.206;2022-08-03T23:00:22;24.40;1.00
12845;DHT22;6489;48.508;9.206;2022-08-03T23:03:51;24.50;99.90
12845;DHT22;6489;48.508;9.206;2022-08-03T23:07:18;24.40;99.90
12845;DHT22;6489;48.508;9.206;2022-08-03T23:10:41;24.00;1.00
12845;DHT22;6489;48.508;9.206;2022-08-03T23:14:07;23.70;1.00
12845;DHT22;6489;48.508;9.206;2022-08-03T23:17:32;23.50;1.00
12845;DHT22;6489;48.508;9.206;2022-08-03T23:20:57;24.10;99.90
12845;DHT22;6489;48.508;9.206;2022-08-03T23:27:44;23.90;1.00
12845;DHT22;6489;48.508;9.206;2022-08-03T23:31:07;23.30;1.00
12845;DHT22;6489;48.508;9.206;2022-08-03T23:38:12;23.30;1.00
12845;DHT22;6489;48.508;9.206;2022-08-03T23:41:35;23.50;1.00
12845;DHT22;6489;48.508;9.206;2022-08-03T23:45:00;23.40;99.90
12845;DHT22;6489;48.508;9.206;2022-08-03T23:51:51;23.40;99.90
12845;DHT22;6489;48.508;9.206;2022-08-03T23:55:24;23.40;99.90
